Airport View

Enter AWOS ICAO identifier for current METAR.

ex. KFNL

KGLS 210052Z AUTO 12013KT 10SM FEW027 29/25 A3001 RMK AO2 SLP161 T02940250

21 Sep 2019 01:07

Frequency: 119.275

Phone: 409-740-9248

Other Area AWOS: KXIH - KLVJ - KEFD - KAXH

TAF KGLS 202322Z 2100/2124 13013KT P6SM SCT025 SCT250 FM211000 15013KT P6SM VCSH FEW015 SCT025 FM211500 13013KT P6SM SCT020 SCT250